Time;durP1;ratioP1;P1;durP2;ratioP2;P2;SDS_P1;SDS_P2;PMS_P1;PMS_P2;Temp;Humidity;BMP_temperature;BMP_pressure;BME280_temperature;BME280_humidity;BME280_pressure;Samples;Min_cycle;Max_cycle;Signal;HPM_P1;HPM_P2
2020/12/13 00:00:09;;;;;;;22.42;13.63;;;9.80;99.90;;;;;;5074197;28;20096;-63
2020/12/13 00:02:37;;;;;;;19.98;13.50;;;9.80;99.90;;;;;;5074061;28;20485;-63
2020/12/13 00:05:05;;;;;;;23.50;14.05;;;9.80;99.90;;;;;;5073975;28;20080;-62
2020/12/13 00:07:32;;;;;;;22.60;14.40;;;9.80;99.90;;;;;;5074270;28;20044;-63
2020/12/13 00:10:02;;;;;;;20.50;13.38;;;9.80;99.90;;;;;;5073654;28;20048;-62
2020/12/13 00:12:28;;;;;;;24.52;15.27;;;9.90;99.90;;;;;;5074057;28;20135;-63
2020/12/13 00:14:55;;;;;;;22.77;13.70;;;9.90;99.90;;;;;;5073776;28;20053;-63
2020/12/13 00:17:24;;;;;;;21.33;13.23;;;9.90;99.90;;;;;;5074235;28;20520;-63
2020/12/13 00:19:50;;;;;;;22.52;13.85;;;9.90;99.90;;;;;;5073820;28;20057;-62
2020/12/13 00:22:17;;;;;;;21.05;12.68;;;9.90;99.90;;;;;;5073899;28;20106;-63
2020/12/13 00:24:46;;;;;;;22.13;14.13;;;9.90;99.90;;;;;;5073240;28;20158;-63
2020/12/13 00:27:15;;;;;;;23.38;14.20;;;9.90;99.90;;;;;;5073573;28;20102;-63
2020/12/13 00:29:45;;;;;;;21.70;13.38;;;9.90;99.90;;;;;;5073186;28;20098;-63
2020/12/13 00:32:12;;;;;;;21.95;12.63;;;9.90;99.90;;;;;;5073980;28;20477;-63
2020/12/13 00:34:41;;;;;;;19.88;12.63;;;9.90;99.90;;;;;;5073773;28;20072;-63
2020/12/13 00:37:07;;;;;;;19.40;12.90;;;9.90;99.90;;;;;;5073472;28;20052;-63
2020/12/13 00:39:38;;;;;;;19.02;12.80;;;9.80;99.90;;;;;;5073349;28;20504;-62
2020/12/13 00:42:06;;;;;;;18.75;12.85;;;9.80;99.90;;;;;;5073523;28;20110;-63
2020/12/13 00:44:35;;;;;;;23.27;13.05;;;9.80;99.90;;;;;;5073302;28;20102;-63
2020/12/13 00:47:04;;;;;;;17.58;11.25;;;9.80;99.90;;;;;;5073097;28;20102;-63
2020/12/13 00:49:31;;;;;;;24.03;13.33;;;9.90;99.90;;;;;;5073324;28;20055;-62
2020/12/13 00:52:01;;;;;;;17.55;11.55;;;9.90;99.90;;;;;;5073204;28;20072;-63
2020/12/13 00:54:27;;;;;;;20.27;12.23;;;9.90;99.90;;;;;;5072501;28;20094;-62
2020/12/13 00:56:55;;;;;;;16.80;11.07;;;9.90;99.90;;;;;;5072908;28;20123;-61
2020/12/13 00:59:24;;;;;;;15.75;10.10;;;9.90;99.90;;;;;;5073126;28;20052;-61
2020/12/13 01:01:51;;;;;;;15.68;10.05;;;9.80;99.90;;;;;;5073015;28;20060;-62
2020/12/13 01:04:18;;;;;;;17.48;11.07;;;9.80;99.90;;;;;;5072760;28;20044;-63
2020/12/13 01:06:45;;;;;;;17.83;11.70;;;9.80;99.90;;;;;;5073471;28;20063;-63
2020/12/13 01:09:15;;;;;;;20.08;11.70;;;9.70;99.90;;;;;;5072571;28;20255;-63
2020/12/13 01:11:54;;;;;;;19.75;12.30;;;9.70;99.90;;;;;;5073125;28;20133;-63
2020/12/13 01:14:21;;;;;;;20.85;11.93;;;9.70;99.90;;;;;;5072690;28;20048;-63
2020/12/13 01:16:48;;;;;;;22.85;12.68;;;9.60;99.90;;;;;;5072898;28;20064;-63
2020/12/13 01:19:15;;;;;;;24.17;14.52;;;9.50;99.90;;;;;;5072793;28;20117;-60
2020/12/13 01:21:45;;;;;;;26.77;14.15;;;9.50;99.90;;;;;;5073248;28;20059;-63
2020/12/13 01:24:11;;;;;;;31.05;15.90;;;9.50;99.90;;;;;;5072030;28;20398;-63
2020/12/13 01:26:38;;;;;;;31.05;17.70;;;9.60;99.90;;;;;;5072890;28;20459;-63
2020/12/13 01:29:05;;;;;;;34.47;17.60;;;9.50;99.90;;;;;;5072870;28;20048;-63
2020/12/13 01:31:32;;;;;;;33.25;18.08;;;9.40;99.90;;;;;;5072917;28;20080;-63
2020/12/13 01:33:58;;;;;;;39.10;18.98;;;9.50;99.90;;;;;;5072515;28;20052;-63
2020/12/13 01:36:28;;;;;;;39.50;20.25;;;9.50;99.90;;;;;;5072753;28;20444;-62
2020/12/13 01:38:54;;;;;;;35.45;18.88;;;9.50;99.90;;;;;;5072225;28;20048;-61
2020/12/13 01:41:21;;;;;;;40.28;19.25;;;9.40;99.90;;;;;;5072083;28;20110;-61
2020/12/13 01:43:59;;;;;;;39.80;19.50;;;9.40;99.90;;;;;;5072751;28;20482;-61
2020/12/13 01:46:29;;;;;;;34.40;18.67;;;9.40;99.90;;;;;;5072420;28;20056;-63
2020/12/13 01:49:01;;;;;;;34.40;17.92;;;9.30;99.90;;;;;;5072498;28;20063;-63
2020/12/13 01:51:42;;;;;;;38.15;18.77;;;9.40;99.90;;;;;;5072614;28;20063;-63
2020/12/13 01:54:12;;;;;;;33.38;17.15;;;9.50;99.90;;;;;;5071931;28;20185;-63
2020/12/13 01:56:42;;;;;;;34.85;17.70;;;9.40;99.90;;;;;;5072686;28;20552;-63
2020/12/13 01:59:12;;;;;;;31.25;17.75;;;9.40;99.90;;;;;;5072422;28;20102;-63
2020/12/13 02:01:42;;;;;;;31.13;17.55;;;9.50;99.90;;;;;;5072846;28;20131;-62
2020/12/13 02:04:11;;;;;;;34.30;19.00;;;9.40;99.90;;;;;;5072187;28;20052;-64
2020/12/13 02:06:39;;;;;;;31.17;18.15;;;9.30;99.90;;;;;;5072323;28;20060;-60
2020/12/13 02:09:06;;;;;;;34.15;18.48;;;9.40;99.90;;;;;;5072212;28;20421;-60
2020/12/13 02:11:35;;;;;;;31.60;18.42;;;9.50;99.90;;;;;;5072371;28;20053;-62
2020/12/13 02:14:06;;;;;;;32.65;18.20;;;9.50;99.90;;;;;;5072032;28;20094;-61
2020/12/13 02:16:32;;;;;;;29.15;17.33;;;9.60;99.90;;;;;;5072253;28;20122;-62
2020/12/13 02:19:00;;;;;;;29.83;18.80;;;9.50;99.90;;;;;;5072130;28;20044;-62
2020/12/13 02:21:27;;;;;;;29.48;17.02;;;9.50;99.90;;;;;;5072314;28;20053;-62
2020/12/13 02:23:54;;;;;;;28.85;16.33;;;9.60;99.90;;;;;;5071761;28;20394;-61
2020/12/13 02:26:21;;;;;;;31.10;18.23;;;9.60;99.90;;;;;;5072151;28;20080;-62
2020/12/13 02:28:48;;;;;;;28.48;16.92;;;9.60;99.90;;;;;;5071985;28;20056;-62
2020/12/13 02:31:15;;;;;;;29.40;16.67;;;9.50;99.90;;;;;;5072040;28;20049;-62
2020/12/13 02:33:42;;;;;;;25.75;16.33;;;9.50;99.90;;;;;;5072356;28;20385;-61
2020/12/13 02:36:09;;;;;;;26.75;17.00;;;9.60;99.90;;;;;;5072015;28;20044;-62
2020/12/13 02:38:35;;;;;;;25.15;16.25;;;9.60;99.90;;;;;;5071690;28;20041;-62
2020/12/13 02:41:05;;;;;;;27.95;16.92;;;9.70;99.90;;;;;;5072143;28;20162;-62
2020/12/13 02:43:33;;;;;;;28.27;16.55;;;9.70;99.90;;;;;;5071850;28;20054;-62
2020/12/13 02:46:00;;;;;;;25.88;15.70;;;9.70;99.90;;;;;;5071836;28;20045;-62
2020/12/13 02:48:27;;;;;;;25.90;15.82;;;9.70;99.90;;;;;;5071723;28;20064;-62
2020/12/13 02:50:57;;;;;;;22.88;14.70;;;9.70;99.90;;;;;;5072041;28;20056;-62
2020/12/13 02:53:23;;;;;;;;;;;9.50;99.90;;;;;;5075022;28;20106;-61
2020/12/13 02:55:50;;;;;;;19.08;13.00;;;9.50;99.90;;;;;;5075186;28;20001;-62
2020/12/13 02:58:17;;;;;;;22.50;13.93;;;9.20;99.90;;;;;;5075328;28;20102;-62
2020/12/13 03:00:44;;;;;;;24.70;14.95;;;9.30;99.90;;;;;;5075279;28;20055;-61
2020/12/13 03:03:10;;;;;;;23.17;13.85;;;9.30;99.90;;;;;;5075260;28;20059;-61
2020/12/13 03:05:39;;;;;;;22.40;13.52;;;9.40;99.90;;;;;;5075080;28;20110;-62
2020/12/13 03:08:07;;;;;;;21.85;13.93;;;9.40;99.90;;;;;;5074318;28;20114;-62
2020/12/13 03:10:33;;;;;;;23.30;14.15;;;9.40;99.90;;;;;;5075562;28;20088;-62
2020/12/13 03:13:00;;;;;;;24.17;14.70;;;9.50;99.90;;;;;;5075343;28;20095;-62
2020/12/13 03:15:27;;;;;;;24.80;13.13;;;9.50;99.90;;;;;;5074873;28;20052;-63
2020/12/13 03:17:54;;;;;;;22.40;12.85;;;9.60;99.90;;;;;;5075140;28;20551;-62
2020/12/13 03:20:20;;;;;;;24.83;13.93;;;9.60;99.90;;;;;;5074949;28;20481;-62
2020/12/13 03:22:47;;;;;;;24.70;14.10;;;9.60;99.90;;;;;;5074705;28;20048;-62
2020/12/13 03:25:13;;;;;;;25.67;15.07;;;9.50;99.90;;;;;;5074757;28;20080;-62
2020/12/13 03:27:40;;;;;;;26.40;15.35;;;9.60;99.90;;;;;;5074937;28;20130;-62
2020/12/13 03:30:07;;;;;;;25.60;15.50;;;9.50;99.90;;;;;;5074707;28;20052;-62
2020/12/13 03:32:36;;;;;;;24.90;15.02;;;9.40;99.90;;;;;;5074715;28;20094;-60
2020/12/13 03:35:03;;;;;;;25.67;15.07;;;9.50;99.90;;;;;;5074514;28;20135;-62
2020/12/13 03:37:30;;;;;;;27.90;16.00;;;9.60;99.90;;;;;;5074468;28;20091;-62
2020/12/13 03:39:56;;;;;;;25.83;15.63;;;9.60;99.90;;;;;;5074672;28;20052;-61
2020/12/13 03:42:23;;;;;;;33.08;17.55;;;9.60;99.90;;;;;;5074922;28;20113;-60
2020/12/13 03:44:50;;;;;;;31.40;16.48;;;9.70;99.90;;;;;;5075010;28;20048;-63
2020/12/13 03:47:16;;;;;;;30.20;18.20;;;9.70;99.90;;;;;;5074248;28;20095;-63
2020/12/13 03:49:46;;;;;;;32.40;18.52;;;9.70;99.90;;;;;;5074442;28;20136;-62
2020/12/13 03:52:16;;;;;;;34.72;18.98;;;9.60;99.90;;;;;;5074127;28;20126;-62
2020/12/13 03:54:42;;;;;;;33.03;17.27;;;9.70;99.90;;;;;;5074561;28;20098;-62
2020/12/13 03:57:09;;;;;;;35.10;20.10;;;9.60;99.90;;;;;;5074521;28;20055;-63
2020/12/13 03:59:35;;;;;;;33.40;19.10;;;9.40;99.90;;;;;;5073861;28;20052;-63
2020/12/13 04:02:04;;;;;;;39.83;20.60;;;9.50;99.90;;;;;;5074239;28;20442;-63
2020/12/13 04:04:31;;;;;;;36.05;20.23;;;9.60;99.90;;;;;;5073191;28;20083;-63
2020/12/13 04:06:58;;;;;;;37.70;20.52;;;9.60;99.90;;;;;;5073885;28;20048;-63
2020/12/13 04:09:25;;;;;;;40.13;19.38;;;9.60;99.90;;;;;;5074033;28;20053;-62
2020/12/13 04:11:51;;;;;;;40.08;20.58;;;9.50;99.90;;;;;;5073979;28;20105;-62
2020/12/13 04:14:17;;;;;;;39.10;20.60;;;9.50;99.90;;;;;;5074111;28;20410;-62
2020/12/13 04:16:44;;;;;;;48.47;23.65;;;9.40;99.90;;;;;;5073440;28;20056;-63
2020/12/13 04:19:11;;;;;;;48.60;23.92;;;9.40;99.90;;;;;;5073736;28;20053;-62
2020/12/13 04:21:38;;;;;;;44.13;22.40;;;9.40;99.90;;;;;;5073838;28;20513;-61
2020/12/13 04:24:08;;;;;;;42.17;21.90;;;9.30;99.90;;;;;;5073979;28;20052;-62
2020/12/13 04:26:35;;;;;;;47.30;23.50;;;9.30;99.90;;;;;;5073901;28;20049;-62
2020/12/13 04:29:01;;;;;;;49.38;23.00;;;9.30;99.90;;;;;;5073789;28;20098;-63
2020/12/13 04:31:28;;;;;;;45.42;22.20;;;9.40;99.90;;;;;;5073026;28;20381;-63
2020/12/13 04:33:55;;;;;;;48.05;23.50;;;9.40;99.90;;;;;;5073513;28;20058;-63
2020/12/13 04:36:21;;;;;;;53.33;25.08;;;9.50;99.90;;;;;;5073563;28;20409;-63
2020/12/13 04:38:48;;;;;;;49.60;24.90;;;9.50;99.90;;;;;;5073518;28;20103;-63
2020/12/13 04:41:15;;;;;;;52.05;25.00;;;9.50;99.90;;;;;;5073679;28;20095;-63
2020/12/13 04:43:42;;;;;;;50.40;25.05;;;9.60;99.90;;;;;;5073212;28;20048;-61
2020/12/13 04:46:09;;;;;;;49.80;25.52;;;9.60;99.90;;;;;;5072608;28;20049;-63
2020/12/13 04:48:37;;;;;;;54.33;28.15;;;9.60;99.90;;;;;;5073390;28;20052;-60
2020/12/13 04:51:04;;;;;;;57.38;26.52;;;9.60;99.90;;;;;;5072964;28;20057;-63
2020/12/13 04:53:32;;;;;;;55.28;25.73;;;9.60;99.90;;;;;;5072918;28;20072;-63
2020/12/13 04:56:00;;;;;;;58.80;27.17;;;9.60;99.90;;;;;;5073104;28;20064;-63
2020/12/13 04:58:29;;;;;;;69.32;28.02;;;9.60;99.90;;;;;;5073109;28;20562;-62
2020/12/13 05:00:57;;;;;;;62.65;27.85;;;9.60;99.90;;;;;;5073039;28;20118;-63
2020/12/13 05:03:25;;;;;;;71.88;30.13;;;9.60;99.90;;;;;;5072842;28;20056;-63
2020/12/13 05:05:52;;;;;;;65.50;28.80;;;9.50;99.90;;;;;;5072850;28;20040;-62
2020/12/13 05:08:19;;;;;;;67.82;30.17;;;9.50;99.90;;;;;;5072353;28;20098;-63
2020/12/13 05:10:48;;;;;;;64.70;29.27;;;9.50;99.90;;;;;;5072858;28;20080;-63
2020/12/13 05:13:14;;;;;;;64.90;28.73;;;9.60;99.90;;;;;;5072622;28;20223;-62
2020/12/13 05:15:42;;;;;;;59.67;27.52;;;9.60;99.90;;;;;;5072841;28;20087;-62
2020/12/13 05:18:08;;;;;;;54.10;26.73;;;9.60;99.90;;;;;;5072745;28;20052;-63
2020/12/13 05:20:35;;;;;;;59.92;28.75;;;9.50;99.90;;;;;;5072457;28;20079;-63
2020/12/13 05:23:02;;;;;;;54.47;27.45;;;9.60;99.90;;;;;;5072538;28;20087;-63
2020/12/13 05:25:30;;;;;;;57.70;28.65;;;9.60;99.90;;;;;;5072805;28;20051;-63
2020/12/13 05:28:00;;;;;;;54.78;28.27;;;9.60;99.90;;;;;;5072555;28;20493;-63
2020/12/13 05:30:31;;;;;;;53.08;27.17;;;9.60;99.90;;;;;;5072907;28;20055;-63
2020/12/13 05:33:00;;;;;;;55.45;26.75;;;9.60;99.90;;;;;;5076101;28;20040;-63
2020/12/13 05:35:28;;;;;;;55.67;28.33;;;9.70;99.90;;;;;;5092557;28;20105;-63
2020/12/13 05:37:55;;;;;;;52.67;26.58;;;9.70;99.90;;;;;;5092683;28;20059;-62
2020/12/13 05:40:23;;;;;;;51.40;27.25;;;9.70;99.90;;;;;;5092406;28;20044;-62
2020/12/13 05:42:59;;;;;;;50.42;26.48;;;9.70;99.90;;;;;;5083718;28;20056;-62
2020/12/13 05:45:39;;;;;;;50.25;27.92;;;9.80;99.90;;;;;;5072466;28;20052;-61
2020/12/13 05:48:27;;;;;;;53.30;27.25;;;9.80;99.90;;;;;;5071699;28;20060;-58
2020/12/13 05:51:10;;;;;;;55.10;28.30;;;9.80;99.90;;;;;;5072287;28;20485;-62
2020/12/13 05:53:37;;;;;;;49.33;26.83;;;9.80;99.90;;;;;;5072386;28;20056;-63
2020/12/13 05:56:04;;;;;;;45.35;26.15;;;9.80;99.90;;;;;;5072599;28;20093;-63
2020/12/13 05:58:31;;;;;;;48.42;27.45;;;9.80;99.90;;;;;;5072705;28;20052;-62
2020/12/13 06:00:58;;;;;;;46.35;26.10;;;9.80;99.90;;;;;;5072004;28;20118;-60
2020/12/13 06:03:32;;;;;;;48.78;26.15;;;9.80;99.90;;;;;;5072319;28;20086;-62
2020/12/13 06:06:10;;;;;;;51.58;27.15;;;9.80;99.90;;;;;;5072366;28;20080;-62
2020/12/13 06:09:03;;;;;;;47.05;26.17;;;9.80;99.90;;;;;;5072390;28;20509;-62
2020/12/13 06:11:35;;;;;;;48.63;26.27;;;9.80;99.90;;;;;;5072362;28;20084;-62
2020/12/13 06:14:08;;;;;;;53.25;27.48;;;9.90;99.90;;;;;;5072153;28;20087;-62
2020/12/13 06:16:34;;;;;;;45.92;25.60;;;9.80;99.90;;;;;;5071615;28;20135;-61
2020/12/13 06:19:04;;;;;;;45.47;26.38;;;9.80;99.90;;;;;;5072416;28;20056;-62
2020/12/13 06:21:32;;;;;;;51.55;27.50;;;9.80;99.90;;;;;;5072652;28;20391;-61
2020/12/13 06:23:59;;;;;;;44.95;25.30;;;9.80;99.90;;;;;;5071889;28;20114;-63
2020/12/13 06:26:27;;;;;;;48.75;26.58;;;9.70;99.90;;;;;;5072588;28;20421;-61
2020/12/13 06:28:54;;;;;;;38.08;24.67;;;9.70;99.90;;;;;;5076006;28;20478;-62
2020/12/13 06:31:21;;;;;;;45.70;25.23;;;9.70;99.90;;;;;;5075683;28;20052;-63
2020/12/13 06:33:48;;;;;;;45.05;24.55;;;9.70;99.90;;;;;;5075223;28;20048;-63
2020/12/13 06:36:16;;;;;;;40.22;23.88;;;9.60;99.90;;;;;;5075685;28;20133;-63
2020/12/13 06:38:42;;;;;;;47.65;25.27;;;9.60;99.90;;;;;;5075506;28;20508;-63
2020/12/13 06:41:12;;;;;;;44.20;25.95;;;9.50;99.90;;;;;;5075479;28;20068;-63
2020/12/13 06:43:40;;;;;;;44.38;25.90;;;9.60;99.90;;;;;;5075680;28;20204;-63
2020/12/13 06:46:11;;;;;;;41.70;23.08;;;9.60;99.90;;;;;;5074969;28;20072;-62
2020/12/13 06:48:38;;;;;;;41.80;24.67;;;9.50;99.90;;;;;;5073798;28;20063;-63
2020/12/13 06:51:08;;;;;;;40.13;23.33;;;9.50;99.90;;;;;;5075219;28;20095;-63
2020/12/13 06:53:37;;;;;;;41.00;23.65;;;9.60;99.90;;;;;;5075313;28;20084;-63
2020/12/13 06:56:11;;;;;;;40.85;23.05;;;9.70;99.90;;;;;;5075269;28;20417;-63
2020/12/13 06:58:46;;;;;;;39.15;21.15;;;9.60;99.90;;;;;;5075396;28;20157;-62
2020/12/13 07:01:20;;;;;;;36.33;21.60;;;9.60;99.90;;;;;;5075454;28;20049;-63
2020/12/13 07:03:47;;;;;;;40.65;22.67;;;9.50;99.90;;;;;;5075078;28;20103;-63
2020/12/13 07:06:20;;;;;;;39.72;22.45;;;9.50;99.90;;;;;;5075138;28;20251;-59
2020/12/13 07:08:54;;;;;;;40.60;22.13;;;9.50;99.90;;;;;;5074987;28;20489;-62
2020/12/13 07:11:23;;;;;;;39.13;21.23;;;9.50;99.90;;;;;;5074104;28;20053;-62
2020/12/13 07:13:51;;;;;;;40.92;21.88;;;9.50;99.90;;;;;;5074810;28;20101;-63
2020/12/13 07:16:33;;;;;;;37.40;20.67;;;9.50;99.90;;;;;;5074949;28;20099;-63
2020/12/13 07:19:05;;;;;;;42.85;22.50;;;9.50;99.90;;;;;;5075222;28;20048;-62
2020/12/13 07:21:33;;;;;;;37.50;21.15;;;9.60;99.90;;;;;;5074867;28;20489;-62
2020/12/13 07:24:00;;;;;;;40.67;23.40;;;9.60;99.90;;;;;;5074868;28;20052;-63
2020/12/13 07:26:31;;;;;;;40.05;21.10;;;9.60;99.90;;;;;;5075183;28;20059;-61
2020/12/13 07:28:59;;;;;;;35.38;19.77;;;9.60;99.90;;;;;;5074227;28;20052;-63
2020/12/13 07:31:27;;;;;;;39.70;21.42;;;9.60;99.90;;;;;;5074796;28;20102;-62
2020/12/13 07:33:54;;;;;;;36.50;21.40;;;9.60;99.90;;;;;;5074598;28;20083;-62
2020/12/13 07:36:21;;;;;;;40.90;22.85;;;9.70;99.90;;;;;;5074330;28;20151;-63
2020/12/13 07:38:47;;;;;;;38.20;22.55;;;9.70;99.90;;;;;;5073459;28;20044;-63
2020/12/13 07:41:16;;;;;;;38.78;20.08;;;9.70;99.90;;;;;;5074676;28;20142;-63
2020/12/13 07:44:00;;;;;;;36.43;19.83;;;9.80;99.90;;;;;;5074429;28;20056;-63
2020/12/13 07:46:28;;;;;;;38.97;20.75;;;9.70;99.90;;;;;;5074548;28;20477;-63
2020/12/13 07:49:06;;;;;;;35.75;19.70;;;9.80;99.90;;;;;;5077607;28;20067;-61
2020/12/13 07:51:35;;;;;;;38.13;20.88;;;9.80;99.90;;;;;;5066375;28;20049;-63
2020/12/13 07:54:16;;;;;;;38.00;19.80;;;9.90;99.90;;;;;;5074533;28;20444;-63
2020/12/13 07:56:45;;;;;;;35.75;20.13;;;9.90;99.90;;;;;;5074317;28;20513;-63
2020/12/13 07:59:15;;;;;;;33.85;20.40;;;9.90;99.90;;;;;;5074461;28;20045;-63
2020/12/13 08:01:44;;;;;;;35.28;19.42;;;9.90;99.90;;;;;;5074636;28;20465;-63
2020/12/13 08:04:11;;;;;;;37.80;20.60;;;9.90;99.90;;;;;;5073455;28;20040;-63
2020/12/13 08:06:38;;;;;;;36.55;21.58;;;9.90;99.90;;;;;;5075504;28;20110;-62
2020/12/13 08:09:09;;;;;;;38.97;20.70;;;9.80;99.90;;;;;;5074116;28;20513;-63
2020/12/13 08:11:37;;;;;;;34.08;18.88;;;9.80;99.90;;;;;;5074385;28;20067;-63
2020/12/13 08:14:07;;;;;;;35.88;20.35;;;9.70;99.90;;;;;;5074048;28;20456;-63
2020/12/13 08:16:34;;;;;;;30.63;17.02;;;9.70;99.90;;;;;;5073725;28;20049;-63
2020/12/13 08:19:09;;;;;;;29.95;16.95;;;9.70;99.90;;;;;;5073985;28;20044;-62
2020/12/13 08:21:51;;;;;;;30.58;15.90;;;9.70;99.90;;;;;;5073093;28;20217;-63
2020/12/13 08:24:19;;;;;;;28.58;14.45;;;9.80;99.90;;;;;;5073690;28;20084;-63
2020/12/13 08:26:47;;;;;;;25.88;14.00;;;9.80;99.90;;;;;;5074056;28;20099;-63
2020/12/13 08:29:15;;;;;;;27.00;14.77;;;9.70;99.90;;;;;;5083966;28;20097;-63
2020/12/13 08:31:43;;;;;;;27.33;13.43;;;9.70;99.90;;;;;;5074202;28;20053;-63
2020/12/13 08:34:09;;;;;;;24.85;14.10;;;9.60;99.90;;;;;;5075466;28;20045;-63
2020/12/13 08:36:36;;;;;;;23.58;13.20;;;9.60;99.90;;;;;;5093782;28;20117;-63
2020/12/13 08:39:11;;;;;;;24.08;12.82;;;9.70;99.90;;;;;;5088694;28;20181;-63
2020/12/13 08:41:47;;;;;;;19.73;11.32;;;9.60;99.90;;;;;;5081088;28;20080;-51
2020/12/13 08:44:29;;;;;;;20.42;11.65;;;9.70;99.90;;;;;;5056457;28;20055;-65
2020/12/13 08:46:57;;;;;;;20.17;12.40;;;9.70;99.90;;;;;;5082915;28;20056;-65
2020/12/13 08:49:25;;;;;;;18.80;11.13;;;9.80;99.90;;;;;;5084439;28;20044;-65
2020/12/13 08:51:52;;;;;;;19.05;12.25;;;9.80;99.90;;;;;;5083667;28;20076;-65
2020/12/13 08:54:19;;;;;;;20.92;12.38;;;9.80;99.90;;;;;;5074255;28;20401;-65
2020/12/13 08:56:51;;;;;;;23.98;14.35;;;9.80;99.90;;;;;;5075448;28;20430;-65
2020/12/13 08:59:20;;;;;;;26.85;17.10;;;9.80;99.90;;;;;;5081628;28;20403;-65
2020/12/13 09:01:55;;;;;;;27.75;16.88;;;9.80;99.90;;;;;;5081310;28;20040;-65
2020/12/13 09:04:23;;;;;;;27.05;16.45;;;9.80;99.90;;;;;;5075493;28;20040;-65
2020/12/13 09:06:58;;;;;;;29.40;16.38;;;9.80;99.90;;;;;;5085550;28;20079;-65
2020/12/13 09:09:29;;;;;;;27.42;15.15;;;9.80;99.90;;;;;;5073159;28;20055;-65
2020/12/13 09:11:56;;;;;;;25.48;14.82;;;9.80;99.90;;;;;;5080022;28;20432;-65
2020/12/13 09:14:31;;;;;;;26.05;15.80;;;9.70;99.90;;;;;;5077232;28;20139;-65
2020/12/13 09:16:59;;;;;;;33.15;18.13;;;9.70;99.90;;;;;;5076776;28;20040;-65
2020/12/13 09:19:26;;;;;;;32.15;18.88;;;9.70;99.90;;;;;;5088465;28;20102;-65
2020/12/13 09:21:54;;;;;;;30.08;18.30;;;9.70;99.90;;;;;;5077013;28;20048;-65
2020/12/13 09:24:23;;;;;;;31.27;18.55;;;9.40;99.90;;;;;;5071778;28;20400;-65
2020/12/13 09:27:05;;;;;;;35.78;21.50;;;9.50;99.90;;;;;;5080203;28;20492;-65
2020/12/13 09:29:35;;;;;;;33.55;21.27;;;9.60;99.90;;;;;;5075605;28;20110;-65
2020/12/13 09:32:03;;;;;;;29.90;20.15;;;9.60;99.90;;;;;;5053315;28;20049;-65
2020/12/13 09:34:30;;;;;;;29.85;19.88;;;9.60;99.90;;;;;;5075901;28;20044;-65
2020/12/13 09:36:58;;;;;;;26.63;17.75;;;9.50;99.90;;;;;;5092324;28;20551;-65
2020/12/13 09:39:27;;;;;;;31.67;19.02;;;9.40;99.90;;;;;;5080130;28;20485;-65
2020/12/13 09:41:55;;;;;;;29.17;18.43;;;9.40;99.90;;;;;;5074569;28;20048;-65
2020/12/13 09:44:22;;;;;;;27.48;18.40;;;9.50;99.90;;;;;;5075796;28;20139;-65
2020/12/13 09:46:48;;;;;;;30.48;18.65;;;9.50;99.90;;;;;;5066422;28;20057;-65
2020/12/13 09:49:20;;;;;;;26.77;17.85;;;9.50;99.90;;;;;;5088511;28;20448;-65
2020/12/13 09:51:48;;;;;;;26.38;17.35;;;9.60;99.90;;;;;;5083234;28;20090;-65
2020/12/13 09:54:14;;;;;;;26.45;16.67;;;9.50;99.90;;;;;;5080403;28;20473;-65
2020/12/13 09:56:41;;;;;;;24.10;16.30;;;9.60;99.90;;;;;;5083180;28;20071;-65
2020/12/13 09:59:08;;;;;;;31.23;18.05;;;9.60;99.90;;;;;;5071788;28;20053;-65
2020/12/13 10:01:34;;;;;;;25.20;16.40;;;9.70;99.90;;;;;;5072502;28;20052;-65
2020/12/13 10:04:01;;;;;;;25.70;14.93;;;9.50;99.90;;;;;;5076122;28;20086;-65
2020/12/13 10:09:11;;;;;;;22.15;14.77;;;9.50;99.90;;;;;;5081773;28;20056;-65
2020/12/13 10:11:39;;;;;;;27.55;16.13;;;9.40;99.90;;;;;;5075851;28;20087;-64
2020/12/13 10:14:06;;;;;;;21.02;14.68;;;9.40;99.90;;;;;;5081139;28;20386;-64
2020/12/13 10:16:35;;;;;;;20.17;14.55;;;9.30;99.90;;;;;;5076715;28;20443;-65
2020/12/13 10:19:02;;;;;;;23.02;14.20;;;9.30;99.90;;;;;;5083528;28;20465;-65
2020/12/13 10:21:31;;;;;;;22.38;13.63;;;9.30;99.90;;;;;;5078354;28;20551;-64
2020/12/13 10:23:58;;;;;;;25.07;13.87;;;9.40;99.90;;;;;;5075887;28;20056;-65
2020/12/13 10:26:25;;;;;;;20.23;13.85;;;9.50;99.90;;;;;;5075141;28;20482;-65
2020/12/13 10:28:52;;;;;;;18.58;12.05;;;9.50;99.90;;;;;;5081638;28;20048;-65
2020/12/13 10:31:19;;;;;;;20.50;13.68;;;9.40;99.90;;;;;;5078349;28;20048;-65
2020/12/13 10:33:46;;;;;;;22.60;12.18;;;9.30;99.90;;;;;;5068498;28;20136;-65
2020/12/13 10:36:14;;;;;;;18.15;13.20;;;9.30;99.90;;;;;;5055408;28;20041;-65
2020/12/13 10:38:41;;;;;;;22.42;13.77;;;9.30;99.90;;;;;;5070329;28;20110;-65
2020/12/13 10:41:09;;;;;;;23.65;14.07;;;9.20;99.90;;;;;;5075757;28;20052;-65
2020/12/13 10:43:36;;;;;;;19.15;13.68;;;9.30;99.90;;;;;;5075034;28;20090;-65
2020/12/13 10:46:05;;;;;;;19.48;12.88;;;9.40;99.90;;;;;;5075177;28;20082;-65
2020/12/13 10:48:32;;;;;;;22.75;13.68;;;9.50;99.90;;;;;;5083248;28;20048;-65
2020/12/13 10:51:02;;;;;;;21.98;13.93;;;9.50;99.90;;;;;;5087305;28;20044;-65
2020/12/13 10:53:29;;;;;;;18.17;13.35;;;9.40;99.90;;;;;;5095811;28;20044;-65
2020/12/13 10:55:59;;;;;;;17.02;12.65;;;9.40;99.90;;;;;;5081714;28;20060;-65
2020/12/13 10:58:26;;;;;;;21.77;13.50;;;9.40;99.90;;;;;;5083053;28;20474;-65
2020/12/13 11:00:52;;;;;;;19.98;14.07;;;9.40;99.90;;;;;;5087899;28;20101;-65
2020/12/13 11:03:19;;;;;;;20.70;13.57;;;9.40;99.90;;;;;;5074765;28;20056;-65
2020/12/13 11:05:46;;;;;;;22.08;14.65;;;9.50;99.90;;;;;;5087251;28;20066;-64
2020/12/13 11:08:12;;;;;;;22.27;13.07;;;9.60;99.90;;;;;;5081464;28;20048;-65
2020/12/13 11:10:39;;;;;;;18.25;13.15;;;9.70;99.90;;;;;;5093809;28;20052;-65
2020/12/13 11:13:06;;;;;;;21.27;12.35;;;9.70;99.90;;;;;;5073945;28;20098;-65
2020/12/13 11:15:33;;;;;;;19.23;13.95;;;9.70;99.90;;;;;;5074991;28;20094;-65
2020/12/13 11:18:00;;;;;;;18.88;12.48;;;9.60;99.90;;;;;;5075353;28;20468;-64
2020/12/13 11:20:26;;;;;;;16.75;12.35;;;9.70;99.90;;;;;;5076540;28;20048;-65
2020/12/13 11:22:53;;;;;;;19.27;12.25;;;9.70;99.90;;;;;;5082633;28;20048;-65
2020/12/13 11:25:19;;;;;;;17.88;12.57;;;9.90;99.90;;;;;;5074733;28;20474;-65
2020/12/13 11:27:46;;;;;;;16.40;11.27;;;10.00;99.90;;;;;;5074916;28;20493;-65
2020/12/13 11:30:13;;;;;;;21.80;12.45;;;9.90;99.90;;;;;;5074572;28;20048;-65
2020/12/13 11:32:43;;;;;;;17.83;11.50;;;10.20;99.90;;;;;;5074258;28;20489;-65
2020/12/13 11:35:10;;;;;;;;;;;10.30;99.90;;;;;;5061743;28;20047;-65
2020/12/13 11:37:39;;;;;;;17.70;12.63;;;10.20;99.90;;;;;;5074216;28;19940;-65
2020/12/13 11:40:07;;;;;;;20.73;12.20;;;10.40;99.90;;;;;;5074378;28;20049;-65
2020/12/13 11:42:35;;;;;;;14.63;10.77;;;10.70;99.90;;;;;;5074365;28;20045;-65
2020/12/13 11:45:03;;;;;;;13.88;10.50;;;10.50;99.90;;;;;;5074085;28;20059;-65
2020/12/13 11:47:32;;;;;;;13.48;8.90;;;10.60;99.90;;;;;;5073914;28;20547;-65
2020/12/13 11:49:59;;;;;;;;;;;10.30;99.90;;;;;;5074969;28;20048;-65
2020/12/13 11:52:25;;;;;;;11.43;9.18;;;10.40;99.90;;;;;;5074146;28;19931;-65
2020/12/13 11:54:52;;;;;;;14.05;9.35;;;10.60;99.90;;;;;;5073418;28;20095;-65
2020/12/13 11:57:21;;;;;;;15.10;9.32;;;10.60;99.90;;;;;;5074128;28;20080;-65
2020/12/13 11:59:48;;;;;;;13.77;9.85;;;10.60;99.90;;;;;;5074308;28;20044;-65
2020/12/13 12:02:14;;;;;;;13.10;8.43;;;10.60;99.90;;;;;;5073935;28;20044;-65
2020/12/13 12:04:42;;;;;;;14.10;9.10;;;10.80;99.90;;;;;;5073990;28;20044;-65
2020/12/13 12:07:08;;;;;;;15.95;9.07;;;10.80;99.90;;;;;;5073933;28;20041;-65
2020/12/13 12:09:35;;;;;;;12.75;8.30;;;10.70;99.90;;;;;;5073593;28;20088;-65
2020/12/13 12:12:01;;;;;;;13.32;8.07;;;10.70;99.90;;;;;;5073943;28;20515;-65
2020/12/13 12:14:28;;;;;;;10.25;7.35;;;10.90;99.90;;;;;;5073485;28;20392;-65
2020/12/13 12:16:56;;;;;;;8.90;6.30;;;11.10;99.90;;;;;;5073730;28;20048;-65
2020/12/13 12:19:22;;;;;;;12.63;7.07;;;11.00;99.90;;;;;;5074115;28;20052;-65
2020/12/13 12:21:51;;;;;;;10.73;7.20;;;10.80;99.90;;;;;;5074178;28;20538;-65
2020/12/13 12:24:20;;;;;;;10.73;7.10;;;11.00;99.90;;;;;;5073072;28;20412;-65
2020/12/13 12:26:47;;;;;;;10.65;6.90;;;11.10;99.90;;;;;;5072711;28;20140;-65
2020/12/13 12:29:14;;;;;;;10.40;7.05;;;11.30;99.90;;;;;;5073779;28;20143;-65
2020/12/13 12:31:41;;;;;;;10.95;6.80;;;11.30;99.90;;;;;;5073432;28;20121;-65
2020/12/13 12:34:08;;;;;;;13.32;6.60;;;11.20;99.90;;;;;;5073214;28;20461;-65
2020/12/13 12:36:34;;;;;;;11.27;7.00;;;11.30;99.90;;;;;;5073725;28;20186;-65
2020/12/13 12:39:05;;;;;;;9.63;6.68;;;11.10;99.90;;;;;;5073176;28;20052;-65
2020/12/13 12:41:32;;;;;;;8.05;5.75;;;11.10;99.90;;;;;;5072885;28;20470;-65
2020/12/13 12:43:59;;;;;;;8.18;5.30;;;11.30;99.90;;;;;;5072873;28;20052;-65
2020/12/13 12:46:26;;;;;;;6.88;5.20;;;11.10;99.90;;;;;;5073057;28;20083;-65